Time;durP1;ratioP1;P1;durP2;ratioP2;P2;SDS_P1;SDS_P2;PMS_P1;PMS_P2;Temp;Humidity;BMP_temperature;BMP_pressure;BME280_temperature;BME280_humidity;BME280_pressure;Samples;Min_cycle;Max_cycle;Signal;HPM_P1;HPM_P2
2023/10/25 00:00:00;;;;;;;10.32;5.57;;;9.70;99.90;;;;;;5000146;28;20727;-83
2023/10/25 00:02:26;;;;;;;6.93;4.55;;;9.80;99.90;;;;;;4983280;28;20041;-81
2023/10/25 00:04:54;;;;;;;8.85;4.90;;;9.80;99.90;;;;;;4985514;28;20046;-81
2023/10/25 00:07:20;;;;;;;8.43;4.53;;;9.80;99.90;;;;;;5016011;28;20461;-82
2023/10/25 00:09:46;;;;;;;9.18;5.25;;;9.80;99.90;;;;;;5015460;28;20497;-81
2023/10/25 00:12:12;;;;;;;8.02;3.92;;;9.70;99.90;;;;;;4995991;28;20045;-81
2023/10/25 00:14:38;;;;;;;5.68;4.03;;;9.80;99.90;;;;;;4980557;28;20497;-82
2023/10/25 00:17:04;;;;;;;10.48;4.55;;;9.70;99.90;;;;;;5014140;28;20112;-81
2023/10/25 00:19:30;;;;;;;8.80;4.60;;;9.70;99.90;;;;;;4965819;28;20473;-82
2023/10/25 00:21:55;;;;;;;7.03;4.38;;;9.70;99.90;;;;;;4981202;28;20116;-82
2023/10/25 00:24:21;;;;;;;7.32;4.35;;;9.70;99.90;;;;;;4982020;28;20553;-82
2023/10/25 00:26:47;;;;;;;8.70;4.65;;;9.60;99.90;;;;;;4998318;28;20505;-81
2023/10/25 00:29:12;;;;;;;6.82;4.15;;;9.70;99.90;;;;;;4984193;28;20144;-81
2023/10/25 00:31:38;;;;;;;8.02;4.03;;;9.60;99.90;;;;;;4964639;28;20044;-82
2023/10/25 00:34:05;;;;;;;6.55;3.92;;;9.70;99.90;;;;;;5014794;28;20037;-81
2023/10/25 00:36:30;;;;;;;6.55;4.30;;;9.50;99.90;;;;;;4995866;28;20045;-82
2023/10/25 00:38:56;;;;;;;10.07;4.55;;;9.50;99.90;;;;;;4988613;28;20047;-84
2023/10/25 00:41:22;;;;;;;12.27;4.20;;;9.50;99.90;;;;;;4999416;28;20037;-84
2023/10/25 00:43:47;;;;;;;10.75;4.18;;;9.60;99.90;;;;;;4974775;28;20044;-82
2023/10/25 00:46:19;;;;;;;10.05;3.50;;;9.50;99.90;;;;;;4985957;28;20048;-82
2023/10/25 00:48:49;;;;;;;5.22;3.78;;;9.50;99.90;;;;;;4999823;28;20045;-82
2023/10/25 00:51:18;;;;;;;7.07;4.22;;;9.60;99.90;;;;;;4997375;28;20049;-82
2023/10/25 00:53:51;;;;;;;8.93;4.43;;;9.40;99.90;;;;;;5006987;28;20169;-81
2023/10/25 00:56:19;;;;;;;7.22;4.05;;;9.50;99.90;;;;;;4992824;28;20128;-82
2023/10/25 00:58:51;;;;;;;6.63;3.88;;;9.40;99.90;;;;;;5010787;28;20037;-82
2023/10/25 01:01:19;;;;;;;7.13;3.90;;;9.40;99.90;;;;;;5010548;28;20048;-81
2023/10/25 01:03:45;;;;;;;7.35;3.85;;;9.40;99.90;;;;;;4998711;28;20069;-82
2023/10/25 01:06:11;;;;;;;8.50;4.57;;;9.30;99.90;;;;;;4996331;28;20128;-82
2023/10/25 01:08:37;;;;;;;7.68;4.28;;;9.40;99.90;;;;;;5031115;28;20033;-82
2023/10/25 01:11:04;;;;;;;5.57;3.47;;;9.30;99.90;;;;;;4983151;28;20493;-82
2023/10/25 01:13:29;;;;;;;5.63;3.63;;;9.30;99.90;;;;;;4998716;28;20107;-82
2023/10/25 01:15:55;;;;;;;7.47;3.83;;;9.30;99.90;;;;;;5015272;28;20041;-82
2023/10/25 01:18:21;;;;;;;5.10;3.22;;;9.20;99.90;;;;;;4998617;28;20136;-82
2023/10/25 01:20:48;;;;;;;7.18;3.95;;;9.20;99.90;;;;;;4993512;28;20072;-81
2023/10/25 01:23:14;;;;;;;4.43;3.50;;;9.10;99.90;;;;;;5013752;28;20029;-81
2023/10/25 01:25:42;;;;;;;6.72;3.80;;;9.10;99.90;;;;;;5009730;28;20504;-81
2023/10/25 01:28:07;;;;;;;5.57;3.60;;;9.10;99.90;;;;;;4986572;28;20049;-82
2023/10/25 01:30:33;;;;;;;6.10;4.00;;;9.00;99.90;;;;;;4999417;28;20071;-82
2023/10/25 01:32:59;;;;;;;7.65;4.18;;;8.90;99.90;;;;;;4999129;28;20477;-82
2023/10/25 01:35:25;;;;;;;5.28;3.30;;;8.90;99.90;;;;;;4998285;28;20405;-82
2023/10/25 01:37:51;;;;;;;6.35;3.83;;;8.90;99.90;;;;;;5015082;28;20435;-82
2023/10/25 01:40:20;;;;;;;6.22;3.55;;;8.90;99.90;;;;;;4998613;28;20033;-82
2023/10/25 01:42:45;;;;;;;6.25;4.18;;;8.90;99.90;;;;;;5010260;28;20038;-82
2023/10/25 01:45:12;;;;;;;4.70;3.70;;;8.80;99.90;;;;;;4994272;28;20056;-82
2023/10/25 01:47:38;;;;;;;9.68;4.68;;;8.70;99.90;;;;;;4992246;28;20038;-82
2023/10/25 01:50:05;;;;;;;7.38;4.05;;;8.80;99.90;;;;;;4989962;28;20038;-82
2023/10/25 01:52:31;;;;;;;7.15;4.13;;;8.80;99.90;;;;;;5014593;28;20053;-82
2023/10/25 01:54:57;;;;;;;4.30;3.30;;;8.80;99.90;;;;;;4993863;28;20421;-82
2023/10/25 01:57:23;;;;;;;7.07;4.18;;;8.80;99.90;;;;;;5000970;28;20045;-82
2023/10/25 01:59:48;;;;;;;7.20;3.78;;;8.70;99.90;;;;;;4976680;28;20482;-82
2023/10/25 02:02:14;;;;;;;6.45;3.67;;;8.80;99.90;;;;;;4994101;28;20116;-82
2023/10/25 02:04:40;;;;;;;6.18;3.90;;;8.70;99.90;;;;;;4998187;28;20091;-82
2023/10/25 02:07:06;;;;;;;6.45;3.47;;;8.80;99.90;;;;;;4998380;28;20704;-81
2023/10/25 02:09:31;;;;;;;6.93;3.50;;;8.70;99.90;;;;;;5014514;28;20045;-81
2023/10/25 02:11:57;;;;;;;6.93;4.07;;;8.60;99.90;;;;;;4982114;28;20095;-82
2023/10/25 02:14:23;;;;;;;6.10;3.63;;;8.70;99.90;;;;;;4997694;28;20413;-81
2023/10/25 02:16:49;;;;;;;8.18;4.15;;;8.70;99.90;;;;;;4998601;28;20044;-82
2023/10/25 02:19:16;;;;;;;4.80;3.60;;;8.70;99.90;;;;;;4998219;28;20038;-82
2023/10/25 02:21:42;;;;;;;6.82;3.90;;;8.70;99.90;;;;;;4990797;28;20046;-82
2023/10/25 02:24:10;;;;;;;6.63;3.80;;;8.60;99.90;;;;;;5015110;28;20030;-82
2023/10/25 02:26:36;;;;;;;4.68;3.58;;;8.60;99.90;;;;;;4989749;28;20033;-82
2023/10/25 02:29:02;;;;;;;7.07;3.70;;;8.50;99.90;;;;;;5002521;28;20048;-81
2023/10/25 02:31:28;;;;;;;8.00;4.43;;;8.50;99.90;;;;;;5009039;28;20038;-82
2023/10/25 02:33:54;;;;;;;5.90;4.03;;;8.50;99.90;;;;;;4998619;28;20037;-82
2023/10/25 02:36:20;;;;;;;6.25;3.60;;;8.60;99.90;;;;;;5010735;28;20500;-82
2023/10/25 02:38:48;;;;;;;7.40;3.72;;;8.50;99.90;;;;;;4988683;28;20048;-82
2023/10/25 02:41:15;;;;;;;6.00;3.97;;;8.60;99.90;;;;;;4974948;28;20048;-82
2023/10/25 02:43:41;;;;;;;5.65;4.13;;;8.50;99.90;;;;;;5012877;28;20045;-82
2023/10/25 02:46:09;;;;;;;7.97;3.90;;;8.40;99.90;;;;;;5012220;28;20034;-82
2023/10/25 02:48:36;;;;;;;5.38;3.25;;;8.40;99.90;;;;;;5014703;28;20132;-82
2023/10/25 02:51:03;;;;;;;4.72;3.53;;;8.40;99.90;;;;;;5014279;28;20124;-82
2023/10/25 02:53:29;;;;;;;6.30;4.18;;;8.40;99.90;;;;;;4982078;28;20395;-82
2023/10/25 02:56:03;;;;;;;8.10;4.47;;;8.40;99.90;;;;;;4997359;28;20129;-81
2023/10/25 02:58:29;;;;;;;7.70;4.47;;;8.50;99.90;;;;;;5014476;28;20128;-82
2023/10/25 03:01:01;;;;;;;8.82;4.85;;;8.40;99.90;;;;;;5014025;28;20037;-82
2023/10/25 03:03:28;;;;;;;8.63;4.72;;;8.40;99.90;;;;;;5012668;28;20058;-82
2023/10/25 03:05:54;;;;;;;7.50;4.47;;;8.40;99.90;;;;;;5004124;28;20037;-81
2023/10/25 03:08:20;;;;;;;7.32;4.82;;;8.30;99.90;;;;;;5014016;28;20091;-82
2023/10/25 03:10:46;;;;;;;8.23;4.72;;;8.20;99.90;;;;;;4997744;28;20041;-81
2023/10/25 03:13:11;;;;;;;6.25;4.85;;;8.30;99.90;;;;;;5006233;28;20115;-82
2023/10/25 03:15:38;;;;;;;8.15;5.25;;;8.20;99.90;;;;;;4997189;28;20105;-81
2023/10/25 03:18:04;;;;;;;8.32;5.70;;;8.40;99.90;;;;;;4996568;28;20038;-81
2023/10/25 03:20:30;;;;;;;9.02;5.32;;;8.20;99.90;;;;;;5017061;28;20061;-81
2023/10/25 03:22:56;;;;;;;7.45;4.80;;;8.30;99.90;;;;;;5000560;28;20068;-81
2023/10/25 03:25:22;;;;;;;5.80;4.65;;;8.20;99.90;;;;;;5003849;28;20042;-82
2023/10/25 03:27:48;;;;;;;6.63;5.30;;;8.20;99.90;;;;;;5000595;28;20091;-82
2023/10/25 03:30:13;;;;;;;7.55;5.25;;;8.20;99.90;;;;;;5001098;28;20037;-82
2023/10/25 03:32:39;;;;;;;8.60;5.35;;;8.20;99.90;;;;;;5000168;28;20393;-82
2023/10/25 03:35:06;;;;;;;8.60;5.55;;;8.20;99.90;;;;;;4997448;28;20053;-81
2023/10/25 03:37:32;;;;;;;7.78;5.63;;;8.20;99.90;;;;;;5000332;28;20077;-83
2023/10/25 03:39:57;;;;;;;7.88;5.80;;;8.10;99.90;;;;;;5017099;28;20393;-82
2023/10/25 03:42:23;;;;;;;8.65;6.00;;;8.20;99.90;;;;;;4981598;28;20025;-82
2023/10/25 03:44:49;;;;;;;9.15;5.97;;;8.20;99.90;;;;;;4997979;28;20037;-82
2023/10/25 03:47:16;;;;;;;10.48;6.18;;;8.20;99.90;;;;;;4993430;28;20122;-81
2023/10/25 03:49:41;;;;;;;9.18;6.40;;;8.10;99.90;;;;;;5000952;28;20050;-81
2023/10/25 03:52:07;;;;;;;9.25;6.90;;;8.30;99.90;;;;;;4981653;28;20477;-82
2023/10/25 03:54:37;;;;;;;9.32;6.85;;;8.20;99.90;;;;;;4980722;28;20502;-84
2023/10/25 03:57:03;;;;;;;8.35;6.03;;;8.30;99.90;;;;;;4999248;28;20045;-84
2023/10/25 03:59:29;;;;;;;10.15;6.72;;;8.20;99.90;;;;;;4999999;28;20129;-83
2023/10/25 04:01:54;;;;;;;8.05;6.65;;;8.30;99.90;;;;;;4980274;28;20044;-84
2023/10/25 04:04:20;;;;;;;9.52;6.90;;;8.30;99.90;;;;;;4989463;28;20469;-84
2023/10/25 04:06:46;;;;;;;10.73;6.88;;;8.20;99.90;;;;;;4982904;28;20041;-84
2023/10/25 04:09:11;;;;;;;9.70;6.95;;;8.30;99.90;;;;;;4986466;28;20501;-83
2023/10/25 04:11:37;;;;;;;12.98;7.78;;;8.30;99.90;;;;;;4986273;28;20124;-84
2023/10/25 04:14:03;;;;;;;11.95;7.38;;;8.20;99.90;;;;;;4993991;28;20045;-84
2023/10/25 04:16:29;;;;;;;10.55;7.53;;;8.30;99.90;;;;;;4982267;28;20041;-84
2023/10/25 04:18:54;;;;;;;8.77;6.85;;;8.30;99.90;;;;;;4986434;28;20029;-84
2023/10/25 04:21:20;;;;;;;9.80;7.38;;;8.30;99.90;;;;;;5000219;28;20080;-86
2023/10/25 04:23:45;;;;;;;11.57;7.57;;;8.20;99.90;;;;;;4979518;28;20049;-86
2023/10/25 04:26:13;;;;;;;9.90;6.30;;;8.30;99.90;;;;;;4967513;28;20049;-83
2023/10/25 04:28:40;;;;;;;8.82;6.45;;;8.20;99.90;;;;;;4999011;28;20041;-84
2023/10/25 04:31:07;;;;;;;8.40;6.38;;;8.20;99.90;;;;;;4999072;28;20041;-83
2023/10/25 04:33:37;;;;;;;;;;;8.10;99.90;;;;;;5015963;28;20048;-83
2023/10/25 04:36:03;;;;;;;10.23;6.40;;;8.20;99.90;;;;;;5026582;28;20007;-83
2023/10/25 04:38:30;;;;;;;9.63;6.15;;;8.20;99.90;;;;;;5006803;28;20393;-83
2023/10/25 04:40:56;;;;;;;7.72;5.65;;;8.20;99.90;;;;;;5015582;28;20505;-84
2023/10/25 04:43:21;;;;;;;9.45;6.10;;;8.10;99.90;;;;;;4982268;28;20068;-83
2023/10/25 04:45:48;;;;;;;7.68;5.82;;;8.20;99.90;;;;;;5005018;28;20049;-83
2023/10/25 04:48:14;;;;;;;10.80;6.38;;;8.00;99.90;;;;;;4996521;28;20041;-83
2023/10/25 04:50:40;;;;;;;;;;;8.10;99.90;;;;;;5015746;28;20112;-83
2023/10/25 04:53:06;;;;;;;9.15;6.70;;;8.10;99.90;;;;;;5017563;28;19967;-83
2023/10/25 04:55:36;;;;;;;7.40;5.80;;;8.10;99.90;;;;;;5010412;28;20228;-83
2023/10/25 04:58:02;;;;;;;8.52;6.18;;;8.10;99.90;;;;;;4984016;28;20045;-83
2023/10/25 05:00:31;;;;;;;7.07;5.97;;;8.00;99.90;;;;;;4969772;28;20385;-83
2023/10/25 05:02:57;;;;;;;9.98;6.32;;;8.10;99.90;;;;;;5007196;28;20095;-83
2023/10/25 05:05:22;;;;;;;7.75;5.68;;;8.10;99.90;;;;;;4991575;28;20037;-83
2023/10/25 05:07:52;;;;;;;10.30;6.57;;;8.10;99.90;;;;;;5015555;28;20485;-83
2023/10/25 05:10:18;;;;;;;7.57;5.47;;;7.90;99.90;;;;;;4998874;28;20045;-83
2023/10/25 05:12:46;;;;;;;5.75;5.05;;;7.90;99.90;;;;;;4983012;28;20091;-83
2023/10/25 05:15:13;;;;;;;8.05;5.63;;;7.90;99.90;;;;;;5001489;28;20050;-84
2023/10/25 05:17:41;;;;;;;10.70;5.70;;;7.90;99.90;;;;;;4974472;28;20037;-84
2023/10/25 05:20:07;;;;;;;6.15;5.18;;;8.00;99.90;;;;;;4982787;28;20770;-84
2023/10/25 05:22:35;;;;;;;7.00;5.80;;;8.00;99.90;;;;;;4998847;28;20116;-84
2023/10/25 05:25:02;;;;;;;7.90;5.75;;;7.80;99.90;;;;;;4982465;28;20116;-81
2023/10/25 05:27:29;;;;;;;8.15;5.72;;;7.90;99.90;;;;;;4998815;28;20226;-82
2023/10/25 05:29:59;;;;;;;8.77;5.38;;;7.90;99.90;;;;;;5005526;28;20046;-84
2023/10/25 05:32:28;;;;;;;8.35;5.45;;;7.90;99.90;;;;;;5013338;28;20088;-84
2023/10/25 05:34:55;;;;;;;7.20;5.30;;;7.90;99.90;;;;;;5005985;28;20038;-82
2023/10/25 05:37:21;;;;;;;7.38;5.60;;;7.80;99.90;;;;;;4977801;28;20044;-83
2023/10/25 05:39:47;;;;;;;8.18;5.55;;;7.80;99.90;;;;;;4986192;28;20061;-78
2023/10/25 05:42:19;;;;;;;7.00;5.50;;;7.70;99.90;;;;;;4979645;28;20478;-79
2023/10/25 05:44:46;;;;;;;8.05;5.65;;;7.70;99.90;;;;;;4994933;28;20045;-83
2023/10/25 05:47:12;;;;;;;6.72;5.00;;;7.80;99.90;;;;;;4979449;28;20040;-83
2023/10/25 05:49:38;;;;;;;6.13;4.80;;;7.70;99.90;;;;;;4976378;28;20440;-83
2023/10/25 05:52:05;;;;;;;6.53;4.82;;;7.70;99.90;;;;;;5001280;28;20049;-83
2023/10/25 05:54:31;;;;;;;5.57;4.32;;;7.70;99.90;;;;;;4975133;28;20054;-83
2023/10/25 05:56:58;;;;;;;7.15;4.68;;;7.60;99.90;;;;;;4955241;28;20047;-83
2023/10/25 05:59:26;;;;;;;6.55;4.60;;;7.70;99.90;;;;;;4966640;28;20076;-83
2023/10/25 06:02:02;;;;;;;10.77;4.65;;;7.60;99.90;;;;;;4975534;28;20141;-83
2023/10/25 06:04:30;;;;;;;7.35;4.65;;;7.60;99.90;;;;;;4990027;28;20042;-84
2023/10/25 06:06:56;;;;;;;5.35;4.20;;;7.60;99.90;;;;;;4974826;28;20092;-85
2023/10/25 06:09:22;;;;;;;6.22;5.03;;;7.60;99.90;;;;;;4991921;28;20073;-85
2023/10/25 06:11:48;;;;;;;7.88;5.03;;;7.60;99.90;;;;;;4975845;28;20046;-88
2023/10/25 06:14:14;;;;;;;6.57;4.90;;;7.70;99.90;;;;;;4992294;28;20053;-86
2023/10/25 06:16:40;;;;;;;6.32;4.60;;;7.60;99.90;;;;;;4975221;28;20034;-85
2023/10/25 06:19:06;;;;;;;5.97;4.70;;;7.50;99.90;;;;;;4975457;28;20092;-85
2023/10/25 06:21:31;;;;;;;8.40;4.63;;;7.50;99.90;;;;;;4976462;28;20486;-85
2023/10/25 06:23:57;;;;;;;7.15;4.32;;;7.50;99.90;;;;;;4984069;28;21019;-85
2023/10/25 06:26:24;;;;;;;8.02;4.65;;;7.60;99.90;;;;;;5000269;28;20489;-85
2023/10/25 06:28:49;;;;;;;;;;;7.60;99.90;;;;;;4974353;28;20038;-85
2023/10/25 06:31:15;;;;;;;6.65;4.63;;;7.60;99.90;;;;;;4959365;28;20060;-85
2023/10/25 06:33:41;;;;;;;5.63;4.70;;;7.60;99.90;;;;;;4974713;28;20034;-82
2023/10/25 06:36:08;;;;;;;6.65;4.85;;;7.60;99.90;;;;;;4987443;28;20049;-85
2023/10/25 06:38:34;;;;;;;8.38;4.80;;;7.50;99.90;;;;;;4959465;28;20038;-82
2023/10/25 06:41:00;;;;;;;;;;;7.60;99.90;;;;;;4962820;28;20502;-83
2023/10/25 06:43:28;;;;;;;6.55;4.20;;;7.60;99.90;;;;;;4991682;28;19917;-83
2023/10/25 06:45:54;;;;;;;6.65;4.43;;;7.50;99.90;;;;;;4991292;28;20124;-87
2023/10/25 06:48:20;;;;;;;5.93;4.20;;;7.60;99.90;;;;;;4957223;28;20129;-86
2023/10/25 06:50:46;;;;;;;6.57;4.97;;;7.60;99.90;;;;;;4991335;28;20066;-86
2023/10/25 06:53:12;;;;;;;5.50;4.25;;;7.70;99.90;;;;;;4988675;28;20453;-86
2023/10/25 06:55:38;;;;;;;5.20;3.85;;;7.70;99.90;;;;;;4996275;28;20049;-87
2023/10/25 06:58:04;;;;;;;7.57;4.57;;;7.70;99.90;;;;;;5000867;28;20041;-86
2023/10/25 07:00:30;;;;;;;6.10;4.35;;;7.70;99.90;;;;;;4989866;28;20114;-85
2023/10/25 07:03:04;;;;;;;6.55;4.38;;;7.70;99.90;;;;;;4964684;28;20481;-86
2023/10/25 07:05:30;;;;;;;4.97;3.90;;;7.70;99.90;;;;;;4999809;28;20121;-86
2023/10/25 07:07:56;;;;;;;5.40;3.80;;;7.80;99.90;;;;;;5018469;28;20361;-85
2023/10/25 07:10:23;;;;;;;8.43;4.70;;;7.80;99.90;;;;;;4998879;28;20041;-85
2023/10/25 07:12:50;;;;;;;5.40;4.25;;;7.80;99.90;;;;;;5006871;28;20076;-85
2023/10/25 07:15:16;;;;;;;7.15;4.13;;;7.80;99.90;;;;;;5009191;28;20489;-85
2023/10/25 07:17:44;;;;;;;6.60;4.45;;;7.90;99.90;;;;;;4998467;28;20490;-85
2023/10/25 07:20:11;;;;;;;5.93;3.88;;;7.90;99.90;;;;;;4998944;28;20065;-85
2023/10/25 07:22:38;;;;;;;6.10;4.30;;;8.00;99.90;;;;;;4996225;28;20038;-85
2023/10/25 07:25:05;;;;;;;5.30;4.43;;;8.00;99.90;;;;;;5001932;28;20456;-85
2023/10/25 07:27:31;;;;;;;8.50;4.53;;;8.00;99.90;;;;;;4986174;28;20037;-86
2023/10/25 07:29:57;;;;;;;5.22;4.03;;;8.10;99.90;;;;;;5000215;28;20049;-86
2023/10/25 07:32:22;;;;;;;5.85;4.18;;;8.10;99.90;;;;;;5016028;28;20044;-86
2023/10/25 07:34:48;;;;;;;6.28;4.60;;;8.00;99.90;;;;;;5001667;28;20042;-86
2023/10/25 07:37:17;;;;;;;5.63;4.03;;;8.20;99.90;;;;;;4991881;28;20400;-86
2023/10/25 07:39:43;;;;;;;6.05;4.10;;;8.20;99.90;;;;;;4982519;28;20033;-86
2023/10/25 07:42:09;;;;;;;6.38;4.65;;;8.20;99.90;;;;;;4971283;28;20120;-86
2023/10/25 07:44:34;;;;;;;6.78;4.53;;;8.10;99.90;;;;;;5013807;28;20047;-85
2023/10/25 07:47:01;;;;;;;6.57;4.43;;;8.20;99.90;;;;;;4997803;28;20041;-85
2023/10/25 07:49:26;;;;;;;7.75;4.47;;;8.20;99.90;;;;;;4998298;28;20034;-85
2023/10/25 07:51:54;;;;;;;5.85;4.38;;;8.20;99.90;;;;;;4985427;28;20045;-85
2023/10/25 07:54:20;;;;;;;6.57;4.80;;;8.30;99.90;;;;;;5014146;28;20061;-86
2023/10/25 07:56:46;;;;;;;;;;;8.30;99.90;;;;;;5017200;28;20401;-85
2023/10/25 07:59:12;;;;;;;7.07;4.57;;;8.40;99.90;;;;;;5014695;28;19974;-85
2023/10/25 08:01:38;;;;;;;7.88;4.93;;;8.40;99.90;;;;;;4997972;28;20034;-85
2023/10/25 08:04:05;;;;;;;8.95;5.10;;;8.30;99.90;;;;;;4982009;28;20037;-85
2023/10/25 08:06:30;;;;;;;6.57;4.63;;;8.40;99.90;;;;;;5019377;28;20042;-85
2023/10/25 08:08:56;;;;;;;5.82;4.72;;;8.50;99.90;;;;;;4998187;28;20113;-86
2023/10/25 08:11:22;;;;;;;7.28;5.07;;;8.40;99.90;;;;;;4999111;28;20116;-86
2023/10/25 08:13:48;;;;;;;9.57;4.43;;;8.40;99.90;;;;;;5015742;28;20029;-85
2023/10/25 08:16:14;;;;;;;9.18;4.95;;;8.50;99.90;;;;;;5010186;28;20033;-85
2023/10/25 08:18:39;;;;;;;7.53;4.45;;;8.60;99.90;;;;;;4963524;28;20482;-86
2023/10/25 08:21:12;;;;;;;5.97;4.72;;;8.60;99.90;;;;;;5014461;28;20033;-85
2023/10/25 08:23:38;;;;;;;5.05;4.47;;;8.60;99.90;;;;;;5001985;28;20041;-84
2023/10/25 08:26:04;;;;;;;6.07;4.35;;;8.60;99.90;;;;;;4999321;28;20045;-85
2023/10/25 08:28:29;;;;;;;4.95;3.95;;;8.70;99.90;;;;;;4982807;28;20057;-85
2023/10/25 08:30:55;;;;;;;6.25;4.15;;;8.80;99.90;;;;;;4983638;28;20142;-81
2023/10/25 08:33:21;;;;;;;6.95;4.32;;;8.80;99.90;;;;;;5028904;28;20474;-81
2023/10/25 08:35:47;;;;;;;5.55;4.10;;;8.90;99.90;;;;;;5008314;28;20092;-81
2023/10/25 08:38:13;;;;;;;4.95;3.95;;;9.00;99.90;;;;;;5028891;28;20030;-80
2023/10/25 08:40:40;;;;;;;7.13;4.32;;;9.00;99.90;;;;;;5012684;28;20041;-82
2023/10/25 08:43:07;;;;;;;6.53;4.55;;;9.20;99.90;;;;;;4996985;28;20042;-81
2023/10/25 08:45:35;;;;;;;8.82;4.85;;;9.20;99.90;;;;;;5021772;28;20440;-80
2023/10/25 08:48:04;;;;;;;6.72;4.10;;;9.30;99.90;;;;;;5026993;28;20046;-81
2023/10/25 08:50:33;;;;;;;5.15;3.80;;;9.40;99.90;;;;;;4996972;28;20037;-82
2023/10/25 08:52:59;;;;;;;5.32;3.80;;;9.30;99.90;;;;;;4997635;28;20038;-85
2023/10/25 08:55:25;;;;;;;5.85;3.90;;;9.40;99.90;;;;;;5006802;28;20543;-81
2023/10/25 08:57:55;;;;;;;7.20;3.95;;;9.50;99.90;;;;;;5008640;28;20048;-84
2023/10/25 09:00:23;;;;;;;6.65;4.35;;;9.60;99.90;;;;;;5000239;28;20420;-85
2023/10/25 09:02:49;;;;;;;5.63;4.40;;;9.60;99.90;;;;;;5007294;28;20038;-84
2023/10/25 09:05:16;;;;;;;;;;;9.70;99.90;;;;;;4981655;28;20045;-80
2023/10/25 09:07:42;;;;;;;5.75;3.83;;;9.70;99.90;;;;;;5012113;28;19921;-80
2023/10/25 09:10:13;;;;;;;6.15;4.03;;;9.70;99.90;;;;;;5029419;28;20037;-80
2023/10/25 09:12:39;;;;;;;4.40;3.72;;;9.70;99.90;;;;;;5006962;28;20056;-80
2023/10/25 09:15:05;;;;;;;5.10;3.88;;;9.80;99.90;;;;;;5008307;28;20057;-80
2023/10/25 09:17:31;;;;;;;5.10;3.63;;;9.90;99.90;;;;;;4988855;28;20144;-84
2023/10/25 09:19:57;;;;;;;6.68;4.03;;;10.00;99.90;;;;;;5013387;28;20033;-85
2023/10/25 09:22:25;;;;;;;4.97;3.60;;;10.10;99.90;;;;;;5001049;28;20045;-85
2023/10/25 09:24:52;;;;;;;6.55;3.95;;;10.10;99.90;;;;;;4996768;28;20037;-84
2023/10/25 09:27:19;;;;;;;6.78;4.18;;;10.20;99.90;;;;;;5009213;28;20042;-85
2023/10/25 09:29:45;;;;;;;6.30;3.88;;;10.20;99.90;;;;;;5010609;28;20481;-84
2023/10/25 09:32:11;;;;;;;4.97;3.30;;;10.20;99.90;;;;;;4985855;28;20049;-80
2023/10/25 09:34:37;;;;;;;5.32;3.30;;;10.30;99.90;;;;;;5026533;28;20056;-80
2023/10/25 09:37:04;;;;;;;8.13;3.97;;;10.40;99.90;;;;;;5025001;28;20068;-79
2023/10/25 09:39:32;;;;;;;5.07;3.75;;;10.30;99.90;;;;;;5023372;28;20060;-84
2023/10/25 09:42:02;;;;;;;4.95;3.65;;;10.40;99.90;;;;;;4991709;28;20139;-85
2023/10/25 09:44:31;;;;;;;4.70;3.42;;;10.30;99.90;;;;;;5006666;28;20049;-85
2023/10/25 09:46:59;;;;;;;4.97;3.78;;;10.40;99.90;;;;;;5010604;28;20045;-85
2023/10/25 09:49:29;;;;;;;4.90;3.65;;;10.40;99.90;;;;;;4974528;28;21022;-85
2023/10/25 09:52:05;;;;;;;6.80;3.35;;;10.50;99.90;;;;;;5012746;28;20033;-84
2023/10/25 09:55:05;;;;;;;5.05;3.40;;;10.50;99.90;;;;;;5018783;28;20386;-84
2023/10/25 09:57:32;;;;;;;5.28;3.72;;;10.50;99.90;;;;;;4960495;28;20046;-79
2023/10/25 10:00:00;;;;;;;5.93;3.63;;;10.50;99.90;;;;;;5006323;28;20802;-80
2023/10/25 10:03:06;;;;;;;4.55;3.55;;;10.60;99.90;;;;;;5003211;28;20049;-80
2023/10/25 10:05:41;;;;;;;6.18;3.85;;;10.60;99.90;;;;;;5022291;28;20041;-80
2023/10/25 10:08:38;;;;;;;5.78;4.03;;;10.60;99.90;;;;;;5026662;28;20555;-79
2023/10/25 10:11:09;;;;;;;6.80;3.95;;;10.70;99.90;;;;;;5016960;28;20069;-83
2023/10/25 10:13:34;;;;;;;7.63;4.70;;;10.70;99.90;;;;;;5027768;28;20037;-85
2023/10/25 10:16:05;;;;;;;5.85;4.18;;;10.80;99.90;;;;;;4980563;28;20044;-85
2023/10/25 10:18:33;;;;;;;7.95;4.20;;;10.80;99.90;;;;;;4997459;28;20045;-85
2023/10/25 10:21:03;;;;;;;5.38;4.10;;;10.90;99.90;;;;;;5035738;28;20048;-85
2023/10/25 10:27:15;;;;;;;5.63;3.90;;;11.10;99.90;;;;;;5018098;28;20149;-79
2023/10/25 10:29:42;;;;;;;5.40;4.05;;;11.20;99.90;;;;;;5030666;28;20061;-83
2023/10/25 10:32:10;;;;;;;6.35;3.88;;;11.30;99.90;;;;;;5016633;28;20481;-83
2023/10/25 10:34:38;;;;;;;7.30;3.47;;;11.40;99.90;;;;;;5000854;28;20040;-83
2023/10/25 10:37:11;;;;;;;7.53;3.88;;;11.50;99.90;;;;;;5017252;28;20107;-83
2023/10/25 10:39:58;;;;;;;5.47;3.40;;;11.60;99.90;;;;;;5026680;28;20378;-83
2023/10/25 10:42:33;;;;;;;5.83;3.47;;;11.60;99.90;;;;;;5004861;28;20041;-83
2023/10/25 10:45:01;;;;;;;9.43;3.30;;;11.70;99.90;;;;;;5017512;28;20572;-83
2023/10/25 10:47:39;;;;;;;5.25;3.20;;;11.70;99.90;;;;;;5000265;28;20037;-82
2023/10/25 10:50:19;;;;;;;3.72;2.80;;;11.80;99.90;;;;;;4999526;28;20124;-83
2023/10/25 10:52:46;;;;;;;4.85;2.60;;;11.90;99.90;;;;;;5001023;28;20042;-83
2023/10/25 10:55:16;;;;;;;3.65;2.50;;;12.00;99.90;;;;;;5016771;28;20091;-83
2023/10/25 10:57:43;;;;;;;5.03;2.92;;;12.10;99.90;;;;;;4985402;28;20053;-84
2023/10/25 11:00:10;;;;;;;;;;;12.20;99.90;;;;;;5017734;28;20095;-83
2023/10/25 11:02:49;;;;;;;3.83;2.80;;;12.20;99.90;;;;;;5000768;28;19963;-84
2023/10/25 11:05:16;;;;;;;4.32;2.80;;;12.30;99.90;;;;;;5009932;28;20042;-84
2023/10/25 11:07:50;;;;;;;4.63;2.90;;;12.40;99.90;;;;;;5002797;28;20045;-82
2023/10/25 11:10:16;;;;;;;3.55;2.67;;;12.50;99.90;;;;;;5010474;28;20071;-84
2023/10/25 11:12:43;;;;;;;;;;;12.60;99.90;;;;;;4999939;28;20044;-84
2023/10/25 11:15:10;;;;;;;4.88;3.63;;;12.60;99.90;;;;;;5000575;28;19921;-84
2023/10/25 11:17:37;;;;;;;4.05;2.80;;;12.80;99.90;;;;;;4966680;28;20432;-84
2023/10/25 11:20:03;;;;;;;4.38;3.15;;;12.90;99.90;;;;;;4978354;28;20053;-84
2023/10/25 11:22:30;;;;;;;4.22;3.20;;;12.90;99.90;;;;;;5000461;28;20121;-83
2023/10/25 11:25:06;;;;;;;6.43;3.25;;;12.90;99.90;;;;;;5004057;28;20066;-84
2023/10/25 11:27:33;;;;;;;4.15;3.13;;;12.90;99.90;;;;;;5003046;28;20038;-83
2023/10/25 11:30:00;;;;;;;5.43;3.42;;;13.00;99.90;;;;;;5012629;28;20076;-83
2023/10/25 11:32:29;;;;;;;5.45;3.90;;;12.90;99.90;;;;;;5004974;28;20219;-83
2023/10/25 11:34:59;;;;;;;5.43;3.40;;;12.90;99.90;;;;;;5031696;28;20037;-83
2023/10/25 11:37:26;;;;;;;5.65;3.78;;;12.80;99.90;;;;;;5016599;28;20512;-83
2023/10/25 11:40:01;;;;;;;4.78;3.42;;;12.80;99.90;;;;;;4981386;28;20025;-84
2023/10/25 11:42:33;;;;;;;6.13;3.70;;;12.80;99.90;;;;;;5009266;28;20104;-84
2023/10/25 11:45:00;;;;;;;4.20;3.42;;;12.70;99.90;;;;;;5000332;28;20041;-83
2023/10/25 11:47:27;;;;;;;4.80;3.47;;;12.70;99.90;;;;;;4992545;28;20100;-83
2023/10/25 11:49:57;;;;;;;5.25;3.25;;;12.70;99.90;;;;;;4998052;28;20049;-83
2023/10/25 11:52:25;;;;;;;7.13;3.28;;;12.80;99.90;;;;;;5015999;28;20517;-84
2023/10/25 11:54:55;;;;;;;4.93;3.10;;;12.80;99.90;;;;;;5014025;28;20054;-83
2023/10/25 11:57:23;;;;;;;3.90;3.17;;;12.80;99.90;;;;;;5014001;28;20046;-83
2023/10/25 11:59:49;;;;;;;6.78;3.20;;;12.90;99.90;;;;;;5016392;28;20033;-83
2023/10/25 12:02:15;;;;;;;5.32;3.45;;;12.90;99.90;;;;;;4974918;28;20064;-83
2023/10/25 12:04:41;;;;;;;4.72;3.40;;;12.80;99.90;;;;;;5013080;28;20489;-83
2023/10/25 12:07:07;;;;;;;7.78;3.80;;;12.80;99.90;;;;;;5000197;28;20043;-86
2023/10/25 12:09:33;;;;;;;5.60;3.65;;;12.70;99.90;;;;;;5000534;28;20100;-83
2023/10/25 12:11:59;;;;;;;5.18;3.45;;;12.70;99.90;;;;;;5014981;28;20050;-84
2023/10/25 12:14:25;;;;;;;5.00;3.15;;;12.60;99.90;;;;;;5006930;28;20041;-84
2023/10/25 12:16:51;;;;;;;4.97;3.60;;;12.60;99.90;;;;;;4978479;28;20040;-85
2023/10/25 12:19:16;;;;;;;4.68;3.35;;;12.50;99.90;;;;;;5013114;28;20465;-84
2023/10/25 12:21:42;;;;;;;5.45;3.22;;;12.50;99.90;;;;;;4976675;28;20041;-85
2023/10/25 12:24:09;;;;;;;4.65;3.13;;;12.50;99.90;;;;;;4982557;28;20061;-84
2023/10/25 12:26:35;;;;;;;5.03;3.15;;;12.50;99.90;;;;;;5000542;28;20465;-84
2023/10/25 12:29:00;;;;;;;5.93;3.10;;;12.50;99.90;;;;;;4980379;28;20045;-81
2023/10/25 12:31:26;;;;;;;5.68;3.22;;;12.40;99.90;;;;;;5024056;28;20128;-81
2023/10/25 12:33:52;;;;;;;3.60;2.60;;;12.40;99.90;;;;;;4989394;28;20470;-81
2023/10/25 12:36:17;;;;;;;4.85;2.65;;;12.40;99.90;;;;;;5014546;28;20117;-81
2023/10/25 12:38:45;;;;;;;3.92;2.70;;;12.30;99.90;;;;;;4996038;28;20099;-81
2023/10/25 12:41:10;;;;;;;3.10;2.50;;;12.30;99.90;;;;;;4996030;28;20041;-82
2023/10/25 12:43:36;;;;;;;3.35;2.45;;;12.20;99.90;;;;;;4997232;28;20492;-80
2023/10/25 12:46:02;;;;;;;3.85;2.53;;;12.30;99.90;;;;;;4996489;28;20051;-82
2023/10/25 12:48:27;;;;;;;4.15;2.90;;;12.20;99.90;;;;;;4994814;28;20793;-80
2023/10/25 12:50:53;;;;;;;3.25;2.50;;;12.20;99.90;;;;;;5029328;28;20033;-81
2023/10/25 12:53:19;;;;;;;4.57;2.72;;;12.20;99.90;;;;;;5013732;28;20128;-82
2023/10/25 12:55:44;;;;;;;5.55;2.95;;;12.20;99.90;;;;;;4997191;28;20424;-81
2023/10/25 12:58:10;;;;;;;3.97;2.90;;;12.20;99.90;;;;;;5018859;28;20050;-81